createdAt,value
2022-08-01T00:00:52.345Z,7.22
2022-08-01T00:03:19.504Z,5.70
2022-08-01T00:05:47.671Z,7.47
2022-08-01T00:08:15.219Z,7.22
2022-08-01T00:10:42.323Z,5.55
2022-08-01T00:13:10.501Z,5.95
2022-08-01T00:15:38.266Z,5.75
2022-08-01T00:18:05.514Z,8.30
2022-08-01T00:20:32.796Z,5.90
2022-08-01T00:23:00.339Z,6.97
2022-08-01T00:25:33.941Z,6.95
2022-08-01T00:28:04.233Z,6.68
2022-08-01T00:30:32.016Z,7.93
2022-08-01T00:32:59.141Z,8.40
2022-08-01T00:35:26.780Z,7.75
2022-08-01T00:37:54.058Z,7.22
2022-08-01T00:40:21.848Z,7.65
2022-08-01T00:42:49.203Z,8.00
2022-08-01T00:45:16.410Z,7.45
2022-08-01T00:47:43.654Z,5.25
2022-08-01T00:50:12.156Z,8.50
2022-08-01T00:52:41.120Z,7.53
2022-08-01T00:55:13.218Z,8.93
2022-08-01T00:58:03.430Z,7.00
2022-08-01T01:02:57.901Z,9.85
2022-08-01T01:05:25.112Z,10.48
2022-08-01T01:07:56.013Z,6.63
2022-08-01T01:10:56.430Z,7.95
2022-08-01T01:13:50.052Z,10.95
2022-08-01T01:16:21.712Z,10.18
2022-08-01T01:18:53.948Z,8.82
2022-08-01T01:21:22.437Z,8.48
2022-08-01T01:24:22.309Z,8.70
2022-08-01T01:29:59.504Z,8.23
2022-08-01T01:32:50.946Z,8.55
2022-08-01T01:35:27.018Z,10.90
2022-08-01T01:38:10.003Z,10.23
2022-08-01T01:40:39.058Z,13.57
2022-08-01T01:43:11.581Z,10.52
2022-08-01T01:45:39.997Z,10.50
2022-08-01T01:48:10.293Z,8.55
2022-08-01T01:50:38.573Z,10.05
2022-08-01T01:53:07.900Z,10.20
2022-08-01T01:55:49.422Z,8.57
2022-08-01T01:58:19.441Z,9.43
2022-08-01T02:00:49.328Z,10.32
2022-08-01T02:03:20.788Z,9.27
2022-08-01T02:05:49.507Z,11.07
2022-08-01T02:08:18.341Z,8.40
2022-08-01T02:11:07.431Z,8.93
2022-08-01T02:13:37.366Z,9.07
2022-08-01T02:16:05.867Z,11.00
2022-08-01T02:18:34.248Z,10.40
2022-08-01T02:21:04.775Z,8.60
2022-08-01T02:23:35.032Z,10.65
2022-08-01T02:26:09.866Z,8.95
2022-08-01T02:28:54.115Z,9.05
2022-08-01T02:31:23.214Z,7.88
2022-08-01T02:34:03.321Z,9.35
2022-08-01T02:36:33.970Z,11.27
2022-08-01T02:39:10.249Z,9.95
2022-08-01T02:41:51.115Z,8.60
2022-08-01T02:44:27.478Z,10.02
2022-08-01T02:47:03.105Z,7.68
2022-08-01T02:49:36.930Z,7.40
2022-08-01T02:52:10.850Z,7.78
2022-08-01T02:54:39.482Z,11.20
2022-08-01T02:57:13.850Z,11.13
2022-08-01T02:59:42.297Z,7.80
2022-08-01T03:02:11.222Z,7.10
2022-08-01T03:04:42.481Z,7.50
2022-08-01T03:07:11.585Z,6.05
2022-08-01T03:09:43.477Z,7.70
2022-08-01T03:12:16.519Z,7.53
2022-08-01T03:14:45.659Z,10.25
2022-08-01T03:17:17.342Z,7.53
2022-08-01T03:19:47.422Z,8.07
2022-08-01T03:22:17.599Z,9.05
2022-08-01T03:24:47.820Z,8.90
2022-08-01T03:27:21.738Z,7.95
2022-08-01T03:29:50.219Z,6.50
2022-08-01T03:32:19.111Z,7.40
2022-08-01T03:34:47.294Z,6.07
2022-08-01T03:37:27.123Z,7.10
2022-08-01T03:40:09.249Z,10.38
2022-08-01T03:42:46.637Z,8.55
2022-08-01T03:45:23.657Z,7.38
2022-08-01T03:50:23.380Z,7.50
2022-08-01T03:52:52.243Z,6.22
2022-08-01T03:55:21.293Z,8.00
2022-08-01T03:57:49.487Z,9.30
2022-08-01T04:00:19.517Z,7.63
2022-08-01T04:02:48.704Z,5.18
2022-08-01T04:05:17.439Z,7.22
2022-08-01T04:07:51.609Z,7.03
2022-08-01T04:10:18.940Z,5.72
2022-08-01T04:12:45.997Z,5.63
2022-08-01T04:15:13.249Z,7.78
2022-08-01T04:17:40.790Z,6.90
2022-08-01T04:20:08.649Z,5.25
2022-08-01T04:22:37.479Z,6.95
2022-08-01T04:25:12.213Z,4.05
2022-08-01T04:27:50.852Z,4.55
2022-08-01T04:30:23.587Z,7.40
2022-08-01T04:32:52.913Z,4.60
2022-08-01T04:35:22.913Z,4.20
2022-08-01T04:38:11.046Z,6.22
2022-08-01T04:40:39.291Z,5.65
2022-08-01T04:43:06.900Z,5.53
2022-08-01T04:45:36.064Z,4.93
2022-08-01T04:48:07.618Z,6.88
2022-08-01T04:50:37.119Z,4.70
2022-08-01T04:53:04.969Z,5.43
2022-08-01T04:55:32.407Z,4.82
2022-08-01T04:57:59.645Z,6.05
2022-08-01T05:00:29.489Z,5.63
2022-08-01T05:02:58.072Z,4.47
2022-08-01T05:05:27.264Z,5.38
2022-08-01T05:07:54.568Z,3.78
2022-08-01T05:10:21.731Z,4.80
2022-08-01T05:12:49.259Z,15.05
2022-08-01T05:15:17.329Z,33.17
2022-08-01T05:17:44.477Z,6.90
2022-08-01T05:20:12.887Z,4.82
2022-08-01T05:22:40.656Z,5.15
2022-08-01T05:25:08.132Z,5.60
2022-08-01T05:27:40.403Z,4.90
2022-08-01T05:30:09.275Z,4.65
2022-08-01T05:32:36.988Z,5.93
2022-08-01T05:35:04.601Z,5.15
2022-08-01T05:37:31.878Z,7.65
2022-08-01T05:39:58.949Z,4.15
2022-08-01T05:42:26.109Z,6.32
2022-08-01T05:44:53.550Z,4.10
2022-08-01T05:47:20.714Z,5.30
2022-08-01T05:49:47.946Z,6.35
2022-08-01T05:52:15.382Z,6.88
2022-08-01T05:54:42.635Z,5.10
2022-08-01T05:57:09.788Z,5.93
2022-08-01T05:59:38.454Z,5.57
2022-08-01T06:02:06.004Z,4.18
2022-08-01T06:04:33.486Z,3.67
2022-08-01T06:07:00.798Z,6.35
2022-08-01T06:09:28.255Z,4.60
2022-08-01T06:11:55.833Z,4.85
2022-08-01T06:14:23.116Z,6.18
2022-08-01T06:16:50.285Z,5.97
2022-08-01T06:19:18.230Z,3.80
2022-08-01T06:21:45.697Z,4.50
2022-08-01T06:24:12.819Z,5.35
2022-08-01T06:26:39.990Z,7.45
2022-08-01T06:29:07.335Z,6.00
2022-08-01T06:31:37.185Z,5.80
2022-08-01T06:34:04.330Z,6.35
2022-08-01T06:36:31.618Z,6.75
2022-08-01T06:38:58.696Z,6.15
2022-08-01T06:41:25.844Z,5.57
2022-08-01T06:43:53.172Z,6.90
2022-08-01T06:46:20.262Z,4.68
2022-08-01T06:48:47.506Z,6.80
2022-08-01T06:51:16.446Z,6.30
2022-08-01T06:53:44.169Z,4.65
2022-08-01T06:56:12.396Z,5.55
2022-08-01T06:58:39.853Z,8.10
2022-08-01T07:01:08.193Z,6.50
2022-08-01T07:03:52.352Z,7.50
2022-08-01T07:06:24.365Z,10.77
2022-08-01T07:08:55.506Z,4.50
2022-08-01T07:11:24.174Z,6.15
2022-08-01T07:13:51.549Z,4.55
2022-08-01T07:16:19.082Z,6.15
2022-08-01T07:18:46.309Z,4.20
2022-08-01T07:21:39.110Z,5.28
2022-08-01T07:24:00.941Z,5.65
2022-08-01T07:26:28.589Z,4.70
2022-08-01T07:28:56.129Z,4.28
2022-08-01T07:31:24.157Z,6.25
2022-08-01T07:33:51.784Z,3.60
2022-08-01T07:36:19.050Z,3.83
2022-08-01T07:38:46.902Z,7.82
2022-08-01T07:41:15.047Z,6.82
2022-08-01T07:43:49.298Z,5.15
2022-08-01T07:46:22.158Z,4.72
2022-08-01T07:48:49.296Z,5.07
2022-08-01T07:51:16.485Z,5.60
2022-08-01T07:53:45.958Z,3.47
2022-08-01T07:56:13.065Z,4.68
2022-08-01T07:58:40.186Z,6.53
2022-08-01T08:01:07.771Z,3.90
2022-08-01T08:03:34.956Z,4.57
2022-08-01T08:06:02.066Z,3.80
2022-08-01T08:08:29.552Z,9.20
2022-08-01T08:10:56.821Z,4.05
2022-08-01T08:13:23.981Z,5.25
2022-08-01T08:15:51.274Z,4.50
2022-08-01T08:18:18.477Z,8.38
2022-08-01T08:20:46.418Z,6.45
2022-08-01T08:23:43.276Z,3.50
2022-08-01T08:26:12.236Z,3.50
2022-08-01T08:28:40.220Z,3.50
2022-08-01T08:31:25.541Z,5.55
2022-08-01T08:33:56.597Z,4.88
2022-08-01T08:36:30.755Z,2.75
2022-08-01T08:39:01.930Z,3.78
2022-08-01T08:41:37.890Z,6.45
2022-08-01T08:46:57.000Z,3.67
2022-08-01T08:51:54.727Z,3.63
2022-08-01T08:54:30.956Z,3.80
2022-08-01T08:57:00.754Z,4.35
2022-08-01T08:59:29.387Z,5.15
2022-08-01T09:01:58.373Z,4.03
2022-08-01T09:04:27.149Z,3.65
2022-08-01T09:06:55.231Z,3.92
2022-08-01T09:09:23.798Z,3.97
2022-08-01T09:11:56.914Z,3.33
2022-08-01T09:14:31.063Z,3.80
2022-08-01T09:17:07.957Z,2.72
2022-08-01T09:19:50.326Z,3.92
2022-08-01T09:22:22.527Z,2.78
2022-08-01T09:25:18.902Z,4.63
2022-08-01T09:27:46.662Z,4.57
2022-08-01T09:30:19.693Z,4.50
2022-08-01T09:33:06.157Z,4.15
2022-08-01T09:35:43.179Z,3.97
2022-08-01T09:38:20.189Z,2.67
2022-08-01T09:40:53.428Z,2.80
2022-08-01T09:43:23.600Z,2.85
2022-08-01T09:45:53.420Z,3.30
2022-08-01T09:48:22.733Z,3.40
2022-08-01T09:50:55.727Z,3.75
2022-08-01T09:53:42.808Z,3.15
2022-08-01T09:56:18.359Z,4.13
2022-08-01T09:58:59.821Z,3.60
2022-08-01T10:01:36.746Z,3.13
2022-08-01T10:04:09.962Z,4.25
2022-08-01T10:06:38.924Z,4.88
2022-08-01T10:09:06.547Z,2.75
2022-08-01T10:11:37.763Z,3.50
2022-08-01T10:14:08.709Z,2.53
2022-08-01T10:16:38.601Z,7.30
2022-08-01T10:19:11.300Z,3.83
2022-08-01T10:21:57.807Z,3.65
2022-08-01T10:24:31.175Z,3.28
2022-08-01T10:27:09.086Z,2.58
2022-08-01T10:30:06.092Z,3.47
2022-08-01T10:32:36.625Z,4.22
2022-08-01T10:35:15.095Z,7.25
2022-08-01T10:37:52.342Z,6.72
2022-08-01T10:40:36.577Z,5.03
2022-08-01T10:43:05.905Z,3.05
2022-08-01T10:45:34.748Z,2.95
2022-08-01T10:48:13.361Z,4.00
2022-08-01T10:50:49.374Z,2.97
2022-08-01T10:53:24.031Z,3.65
2022-08-01T10:55:59.296Z,2.85
2022-08-01T10:58:27.752Z,3.28
2022-08-01T11:01:26.632Z,3.13
2022-08-01T11:04:01.485Z,2.90
2022-08-01T11:06:35.345Z,2.85
2022-08-01T11:09:16.828Z,3.03
2022-08-01T11:12:07.320Z,6.05
2022-08-01T11:14:56.140Z,4.13
2022-08-01T11:17:38.000Z,3.03
2022-08-01T11:20:13.871Z,3.22
2022-08-01T11:23:05.133Z,2.70
2022-08-01T11:26:03.140Z,5.10
2022-08-01T11:28:32.510Z,2.70
2022-08-01T11:31:03.151Z,5.57
2022-08-01T11:33:46.005Z,2.97
2022-08-01T11:36:14.559Z,3.35
2022-08-01T11:38:48.249Z,2.97
2022-08-01T11:41:38.507Z,3.20
2022-08-01T11:44:28.216Z,3.17
2022-08-01T11:47:09.296Z,2.92
2022-08-01T11:49:48.678Z,3.55
2022-08-01T11:52:34.652Z,4.68
2022-08-01T11:55:02.322Z,3.65
2022-08-01T11:57:36.036Z,3.42
2022-08-01T12:00:17.363Z,3.13
2022-08-01T12:02:47.344Z,2.15
2022-08-01T12:05:19.308Z,3.97
2022-08-01T12:07:53.271Z,3.53
2022-08-01T12:10:22.589Z,2.38
2022-08-01T12:12:58.568Z,4.10
2022-08-01T12:15:30.003Z,4.03
2022-08-01T12:18:02.773Z,2.90
2022-08-01T12:20:32.655Z,3.60
2022-08-01T12:23:09.149Z,3.90
2022-08-01T12:25:37.735Z,3.25
2022-08-01T12:28:07.244Z,2.33
2022-08-01T12:30:36.561Z,2.30
2022-08-01T12:33:09.935Z,4.43
2022-08-01T12:35:39.501Z,2.55
2022-08-01T12:38:14.817Z,3.45
2022-08-01T12:40:45.480Z,3.05
2022-08-01T12:43:28.400Z,4.22
2022-08-01T12:46:01.716Z,3.08
2022-08-01T12:48:31.158Z,3.22
2022-08-01T12:51:02.083Z,2.67
2022-08-01T12:53:40.950Z,3.28
2022-08-01T12:56:11.282Z,2.10
2022-08-01T12:58:39.276Z,2.97
2022-08-01T13:01:11.433Z,5.80
2022-08-01T13:03:39.757Z,3.85
2022-08-01T13:06:15.716Z,6.95
2022-08-01T13:08:44.156Z,3.78
2022-08-01T13:11:16.489Z,3.67
2022-08-01T13:13:50.388Z,4.47
2022-08-01T13:16:30.493Z,4.30
2022-08-01T13:19:06.943Z,4.05
2022-08-01T13:21:53.694Z,4.40
2022-08-01T13:24:29.432Z,6.95
2022-08-01T13:27:02.266Z,3.72
2022-08-01T13:29:43.385Z,4.03
2022-08-01T13:32:27.954Z,4.00
2022-08-01T13:35:08.710Z,3.10
2022-08-01T13:37:40.264Z,3.22
2022-08-01T13:40:08.987Z,2.85
2022-08-01T13:42:36.389Z,5.65
2022-08-01T13:45:14.788Z,2.97
2022-08-01T13:48:03.368Z,3.40
2022-08-01T13:50:31.549Z,3.97
2022-08-01T13:52:58.859Z,3.10
2022-08-01T13:55:27.916Z,3.28
2022-08-01T13:57:57.151Z,3.42
2022-08-01T14:00:24.490Z,5.65
2022-08-01T14:02:51.721Z,4.95
2022-08-01T14:05:18.896Z,3.47
2022-08-01T14:07:48.526Z,2.80
2022-08-01T14:10:19.531Z,2.83
2022-08-01T14:12:51.081Z,4.18
2022-08-01T14:15:36.888Z,4.43
2022-08-01T14:18:10.697Z,2.47
2022-08-01T14:20:39.640Z,2.80
2022-08-01T14:23:08.950Z,2.60
2022-08-01T14:26:04.102Z,4.43
2022-08-01T14:28:28.330Z,2.75
2022-08-01T14:30:56.581Z,3.10
2022-08-01T14:33:23.968Z,3.22
2022-08-01T14:36:05.556Z,2.85
2022-08-01T14:38:35.071Z,2.28
2022-08-01T14:41:04.358Z,2.50
2022-08-01T14:43:33.575Z,4.15
2022-08-01T14:46:05.605Z,5.07
2022-08-01T14:48:33.049Z,2.60
2022-08-01T14:51:03.738Z,5.72
2022-08-01T14:53:31.863Z,5.03
2022-08-01T14:56:02.515Z,3.83
2022-08-01T14:58:29.729Z,2.67
2022-08-01T15:00:59.221Z,3.83
2022-08-01T15:03:27.608Z,2.80
2022-08-01T15:05:54.919Z,2.47
2022-08-01T15:08:22.112Z,4.85
2022-08-01T15:10:49.414Z,2.53
2022-08-01T15:13:16.592Z,3.30
2022-08-01T15:15:43.766Z,6.20
2022-08-01T15:18:11.434Z,10.90
2022-08-01T15:20:39.050Z,4.85
2022-08-01T15:23:06.219Z,3.70
2022-08-01T15:25:41.765Z,6.30
2022-08-01T15:28:10.856Z,2.67
2022-08-01T15:30:38.909Z,3.10
2022-08-01T15:33:06.509Z,2.30
2022-08-01T15:35:33.717Z,3.05
2022-08-01T15:38:01.143Z,2.22
2022-08-01T15:40:30.284Z,2.42
2022-08-01T15:42:57.344Z,2.60
2022-08-01T15:45:46.250Z,3.13
2022-08-01T15:48:12.523Z,2.42
2022-08-01T15:50:42.131Z,4.93
2022-08-01T15:53:09.325Z,2.40
2022-08-01T15:55:38.294Z,3.28
2022-08-01T15:58:06.203Z,3.13
2022-08-01T16:00:39.586Z,2.85
2022-08-01T16:03:10.606Z,3.38
2022-08-01T16:05:43.533Z,2.58
2022-08-01T16:08:12.626Z,2.45
2022-08-01T16:10:39.866Z,2.22
2022-08-01T16:13:07.997Z,4.35
2022-08-01T16:15:39.419Z,2.20
2022-08-01T16:18:13.057Z,3.03
2022-08-01T16:20:45.403Z,3.05
2022-08-01T16:23:14.991Z,3.13
2022-08-01T16:25:44.549Z,2.53
2022-08-01T16:28:12.337Z,3.30
2022-08-01T16:30:54.001Z,4.97
2022-08-01T16:33:45.821Z,2.33
2022-08-01T16:36:16.820Z,3.25
2022-08-01T16:38:44.957Z,4.10
2022-08-01T16:41:19.651Z,4.57
2022-08-01T16:43:53.936Z,4.63
2022-08-01T16:46:25.187Z,2.40
2022-08-01T16:48:53.651Z,3.22
2022-08-01T16:51:21.081Z,5.65
2022-08-01T16:53:48.526Z,3.85
2022-08-01T16:56:15.990Z,3.63
2022-08-01T16:58:43.329Z,4.90
2022-08-01T17:02:01.428Z,4.28
2022-08-01T17:04:01.612Z,3.15
2022-08-01T17:06:29.946Z,3.00
2022-08-01T17:08:57.134Z,3.35
2022-08-01T17:11:24.713Z,3.75
2022-08-01T17:13:51.925Z,3.60
2022-08-01T17:16:19.402Z,4.20
2022-08-01T17:18:46.705Z,4.07
2022-08-01T17:21:14.595Z,12.15
2022-08-01T17:23:41.672Z,3.78
2022-08-01T17:26:09.001Z,8.90
2022-08-01T17:28:36.225Z,3.58
2022-08-01T17:31:03.534Z,4.20
2022-08-01T17:33:45.743Z,2.78
2022-08-01T17:38:41.907Z,3.78
2022-08-01T17:41:09.173Z,3.80
2022-08-01T17:43:36.265Z,3.10
2022-08-01T17:46:03.730Z,5.20
2022-08-01T17:48:30.946Z,3.28
2022-08-01T17:50:58.112Z,3.67
2022-08-01T17:53:25.468Z,3.80
2022-08-01T17:55:57.237Z,3.72
2022-08-01T17:58:51.458Z,3.88
2022-08-01T18:01:17.317Z,4.30
2022-08-01T18:03:45.761Z,3.30
2022-08-01T18:06:19.441Z,3.80
2022-08-01T18:08:47.932Z,3.13
2022-08-01T18:11:16.275Z,8.73
2022-08-01T18:13:43.903Z,4.38
2022-08-01T18:16:13.077Z,3.65
2022-08-01T18:18:41.808Z,5.45
2022-08-01T18:21:09.250Z,4.82
2022-08-01T18:23:36.985Z,4.65
2022-08-01T18:26:07.572Z,5.38
2022-08-01T18:28:41.986Z,5.32
2022-08-01T18:31:17.278Z,7.15
2022-08-01T18:33:45.336Z,7.57
2022-08-01T18:36:31.444Z,9.40
2022-08-01T18:39:10.146Z,10.38
2022-08-01T18:41:38.727Z,11.85
2022-08-01T18:44:08.270Z,9.63
2022-08-01T18:46:39.796Z,11.05
2022-08-01T18:49:09.151Z,14.13
2022-08-01T18:51:42.918Z,13.05
2022-08-01T18:54:12.102Z,11.45
2022-08-01T18:56:39.297Z,11.63
2022-08-01T18:59:06.470Z,9.50
2022-08-01T19:01:33.905Z,11.73
2022-08-01T19:04:01.354Z,12.98
2022-08-01T19:06:28.750Z,12.63
2022-08-01T19:09:01.900Z,13.35
2022-08-01T19:11:31.018Z,14.70
2022-08-01T19:13:59.306Z,13.25
2022-08-01T19:16:27.504Z,15.13
2022-08-01T19:18:54.900Z,11.32
2022-08-01T19:21:22.923Z,13.48
2022-08-01T19:24:08.602Z,12.93
2022-08-01T19:26:38.034Z,11.23
2022-08-01T19:29:15.183Z,10.98
2022-08-01T19:31:47.004Z,12.80
2022-08-01T19:34:18.926Z,10.40
2022-08-01T19:36:48.072Z,11.35
2022-08-01T19:39:21.732Z,7.28
2022-08-01T19:41:51.081Z,8.50
2022-08-01T19:44:20.437Z,7.43
2022-08-01T19:46:47.615Z,10.98
2022-08-01T19:49:16.979Z,8.30
2022-08-01T19:51:53.122Z,11.10
2022-08-01T19:54:21.989Z,12.75
2022-08-01T19:56:50.875Z,7.10
2022-08-01T19:59:20.362Z,11.18
2022-08-01T20:01:49.499Z,9.63
2022-08-01T20:04:17.901Z,11.50
2022-08-01T20:06:46.118Z,10.85
2022-08-01T20:09:13.938Z,9.48
2022-08-01T20:11:46.670Z,9.60
2022-08-01T20:14:16.916Z,12.85
2022-08-01T20:16:44.613Z,10.15
2022-08-01T20:19:12.551Z,12.50
2022-08-01T20:22:02.595Z,12.57
2022-08-01T20:24:39.483Z,10.63
2022-08-01T20:27:10.111Z,12.20
2022-08-01T20:29:38.451Z,12.60
2022-08-01T20:32:06.276Z,13.25
2022-08-01T20:34:39.513Z,18.92
2022-08-01T20:37:13.232Z,11.30
2022-08-01T20:39:43.818Z,11.85
2022-08-01T20:42:12.066Z,11.35
2022-08-01T20:44:39.850Z,10.32
2022-08-01T20:47:07.113Z,13.27
2022-08-01T20:49:37.146Z,11.82
2022-08-01T20:52:11.928Z,7.50
2022-08-01T20:54:41.919Z,11.63
2022-08-01T20:57:21.483Z,8.55
2022-08-01T20:59:57.524Z,7.65
2022-08-01T21:02:30.789Z,10.80
2022-08-01T21:05:11.761Z,12.98
2022-08-01T21:07:52.225Z,12.95
2022-08-01T21:10:26.082Z,9.15
2022-08-01T21:13:06.420Z,11.48
2022-08-01T21:16:11.827Z,13.02
2022-08-01T21:18:38.650Z,12.05
2022-08-01T21:21:15.237Z,11.85
2022-08-01T21:24:04.566Z,12.85
2022-08-01T21:26:34.943Z,11.68
2022-08-01T21:29:10.447Z,11.18
2022-08-01T21:31:41.327Z,14.37
2022-08-01T21:34:18.473Z,12.30
2022-08-01T21:36:46.905Z,11.88
2022-08-01T21:39:14.482Z,11.20
2022-08-01T21:42:04.919Z,12.00
2022-08-01T21:44:33.015Z,13.43
2022-08-01T21:47:01.189Z,17.33
2022-08-01T21:49:28.523Z,14.27
2022-08-01T21:52:12.418Z,14.23
2022-08-01T21:54:47.667Z,11.68
2022-08-01T21:57:34.511Z,16.60
2022-08-01T22:00:58.414Z,13.40
2022-08-01T22:03:49.768Z,20.92
2022-08-01T22:06:20.532Z,14.13
2022-08-01T22:08:59.554Z,14.73
2022-08-01T22:11:30.092Z,13.00
2022-08-01T22:14:00.447Z,17.58
2022-08-01T22:16:31.715Z,17.63
2022-08-01T22:19:03.133Z,15.85
2022-08-01T22:21:30.589Z,12.23
2022-08-01T22:23:59.278Z,14.93
2022-08-01T22:26:29.427Z,15.25
2022-08-01T22:28:56.939Z,17.33
2022-08-01T22:31:24.568Z,15.20
2022-08-01T22:33:52.659Z,16.45
2022-08-01T22:36:20.817Z,19.15
2022-08-01T22:38:48.280Z,14.80
2022-08-01T22:41:18.180Z,16.05
2022-08-01T22:44:04.362Z,14.20
2022-08-01T22:46:53.065Z,15.85
2022-08-01T22:49:23.411Z,17.23
2022-08-01T22:52:20.486Z,13.55
2022-08-01T22:54:58.300Z,14.65
2022-08-01T22:57:31.362Z,14.43
2022-08-01T23:00:05.880Z,14.50
2022-08-01T23:02:37.291Z,17.63
2022-08-01T23:05:07.707Z,16.77
2022-08-01T23:07:45.995Z,16.95
2022-08-01T23:10:13.826Z,16.83
2022-08-01T23:12:41.913Z,16.30
2022-08-01T23:15:09.687Z,15.73
2022-08-01T23:17:37.514Z,14.35
2022-08-01T23:20:07.061Z,14.65
2022-08-01T23:22:36.825Z,14.20
2022-08-01T23:25:10.299Z,20.70
2022-08-01T23:27:55.829Z,19.33
2022-08-01T23:30:34.211Z,15.00
2022-08-01T23:33:02.308Z,30.50
2022-08-01T23:35:30.182Z,17.08
2022-08-01T23:38:02.728Z,13.05
2022-08-01T23:40:34.583Z,16.25
2022-08-01T23:43:03.794Z,15.95
2022-08-01T23:45:58.572Z,16.50
2022-08-01T23:48:19.628Z,15.32
2022-08-01T23:50:55.521Z,14.48
2022-08-01T23:53:30.689Z,12.73
2022-08-01T23:56:02.564Z,14.65
2022-08-01T23:58:30.717Z,15.70
